createdAt,value
2023-03-11T00:00:41.506Z,87.71
2023-03-11T00:03:24.963Z,87.90
2023-03-11T00:05:54.357Z,87.71
2023-03-11T00:08:24.584Z,87.72
2023-03-11T00:10:55.627Z,87.40
2023-03-11T00:13:24.017Z,87.39
2023-03-11T00:15:56.065Z,87.33
2023-03-11T00:18:27.212Z,87.37
2023-03-11T00:20:56.719Z,87.21
2023-03-11T00:23:26.113Z,86.88
2023-03-11T00:25:54.597Z,86.76
2023-03-11T00:28:25.519Z,86.37
2023-03-11T00:30:53.858Z,86.18
2023-03-11T00:33:22.178Z,85.96
2023-03-11T00:35:50.991Z,85.90
2023-03-11T00:38:21.880Z,85.74
2023-03-11T00:40:50.378Z,85.61
2023-03-11T00:43:18.557Z,85.44
2023-03-11T00:45:47.293Z,85.31
2023-03-11T00:48:16.431Z,85.28
2023-03-11T00:50:45.128Z,85.17
2023-03-11T00:53:13.321Z,84.87
2023-03-11T00:55:42.083Z,84.47
2023-03-11T00:58:13.746Z,84.10
2023-03-11T01:00:47.836Z,84.03
2023-03-11T01:03:16.008Z,84.18
2023-03-11T01:05:47.057Z,84.16
2023-03-11T01:08:15.320Z,84.40
2023-03-11T01:10:43.902Z,84.93
2023-03-11T01:13:13.817Z,85.22
2023-03-11T01:15:42.020Z,85.67
2023-03-11T01:18:10.264Z,86.70
2023-03-11T01:20:38.954Z,86.88
2023-03-11T01:23:07.532Z,87.22
2023-03-11T01:25:36.369Z,87.36
2023-03-11T01:28:05.408Z,87.60
2023-03-11T01:30:33.683Z,88.00
2023-03-11T01:33:02.572Z,88.32
2023-03-11T01:35:32.323Z,88.31
2023-03-11T01:38:00.554Z,88.76
2023-03-11T01:40:39.180Z,89.05
2023-03-11T01:43:37.430Z,89.32
2023-03-11T01:46:16.358Z,89.57
2023-03-11T01:48:51.610Z,89.86
2023-03-11T01:51:34.223Z,89.80
2023-03-11T01:54:10.769Z,90.01
2023-03-11T01:56:40.188Z,90.12
2023-03-11T01:59:09.904Z,90.35
2023-03-11T02:01:44.359Z,90.61
2023-03-11T02:04:13.308Z,90.76
2023-03-11T02:06:41.790Z,90.97
2023-03-11T02:09:10.473Z,91.14
2023-03-11T02:11:38.950Z,91.37
2023-03-11T02:14:09.636Z,91.48
2023-03-11T02:16:37.756Z,91.57
2023-03-11T02:19:17.092Z,91.78
2023-03-11T02:21:45.468Z,91.94
2023-03-11T02:24:38.222Z,92.13
2023-03-11T02:27:08.953Z,92.51
2023-03-11T02:29:37.020Z,92.32
2023-03-11T02:32:08.928Z,92.45
2023-03-11T02:34:40.098Z,92.57
2023-03-11T02:37:11.454Z,92.46
2023-03-11T02:39:43.023Z,92.68
2023-03-11T02:42:26.350Z,92.59
2023-03-11T02:45:00.573Z,92.50
2023-03-11T02:47:29.767Z,92.44
2023-03-11T02:49:58.237Z,92.48
2023-03-11T02:52:28.742Z,92.89
2023-03-11T02:54:56.831Z,92.72
2023-03-11T02:57:25.106Z,92.88
2023-03-11T02:59:53.586Z,92.84
2023-03-11T03:02:21.932Z,92.68
2023-03-11T03:04:50.746Z,92.72
2023-03-11T03:07:19.019Z,92.70
2023-03-11T03:09:47.197Z,92.75
2023-03-11T03:12:15.366Z,92.53
2023-03-11T03:14:43.643Z,92.33
2023-03-11T03:17:12.089Z,92.40
2023-03-11T03:19:40.700Z,92.18
2023-03-11T03:22:08.874Z,92.23
2023-03-11T03:24:37.152Z,91.93
2023-03-11T03:27:05.842Z,91.69
2023-03-11T03:29:34.432Z,91.62
2023-03-11T03:32:02.690Z,91.60
2023-03-11T03:34:30.965Z,91.69
2023-03-11T03:36:59.137Z,91.71
2023-03-11T03:39:30.006Z,91.78
2023-03-11T03:41:58.759Z,91.60
2023-03-11T03:44:30.923Z,91.38
2023-03-11T03:47:00.242Z,91.70
2023-03-11T03:49:28.600Z,91.29
2023-03-11T03:51:57.282Z,91.43
2023-03-11T03:54:30.479Z,91.53
2023-03-11T03:56:59.057Z,91.45
2023-03-11T03:59:27.239Z,91.77
2023-03-11T04:01:58.191Z,91.61
2023-03-11T04:04:26.956Z,91.65
2023-03-11T04:06:55.629Z,91.91
2023-03-11T04:09:23.915Z,92.16
2023-03-11T04:11:52.190Z,92.20
2023-03-11T04:14:21.079Z,92.25
2023-03-11T04:16:54.750Z,92.32
2023-03-11T04:19:23.155Z,92.56
2023-03-11T04:21:52.150Z,92.70
2023-03-11T04:24:21.147Z,93.00
2023-03-11T04:26:49.643Z,92.62
2023-03-11T04:29:18.308Z,92.74
2023-03-11T04:31:49.887Z,93.06
2023-03-11T04:34:18.844Z,92.89
2023-03-11T04:36:47.022Z,93.08
2023-03-11T04:39:16.418Z,93.13
2023-03-11T04:41:45.507Z,93.51
2023-03-11T04:44:17.266Z,93.66
2023-03-11T04:46:46.051Z,93.57
2023-03-11T04:49:14.325Z,93.59
2023-03-11T04:51:43.117Z,93.66
2023-03-11T04:54:12.213Z,93.59
2023-03-11T04:56:40.584Z,93.73
2023-03-11T04:59:09.682Z,93.98
2023-03-11T05:01:38.905Z,94.22
2023-03-11T05:04:08.833Z,94.08
2023-03-11T05:06:37.368Z,94.38
2023-03-11T05:09:06.869Z,94.59
2023-03-11T05:11:37.294Z,94.72
2023-03-11T05:14:05.572Z,94.78
2023-03-11T05:16:34.157Z,94.94
2023-03-11T05:19:22.599Z,95.26
2023-03-11T05:21:51.383Z,95.33
2023-03-11T05:24:19.865Z,95.65
2023-03-11T05:26:48.638Z,96.20
2023-03-11T05:29:17.856Z,96.53
2023-03-11T05:31:47.156Z,96.55
2023-03-11T05:34:16.137Z,96.70
2023-03-11T05:36:44.727Z,96.80
2023-03-11T05:39:13.612Z,96.70
2023-03-11T05:41:43.837Z,96.74
2023-03-11T05:44:12.313Z,96.79
2023-03-11T05:46:41.116Z,96.82
2023-03-11T05:49:09.479Z,96.90
2023-03-11T05:51:38.375Z,96.87
2023-03-11T05:54:15.173Z,97.04
2023-03-11T05:56:46.793Z,97.16
2023-03-11T05:59:16.721Z,97.29
2023-03-11T06:01:46.522Z,97.34
2023-03-11T06:04:15.199Z,97.42
2023-03-11T06:06:44.103Z,97.47
2023-03-11T06:09:15.947Z,97.61
2023-03-11T06:11:45.038Z,97.65
2023-03-11T06:14:14.756Z,97.77
2023-03-11T06:16:44.044Z,97.97
2023-03-11T06:19:13.041Z,98.03
2023-03-11T06:21:44.274Z,98.07
2023-03-11T06:24:12.658Z,97.95
2023-03-11T06:26:40.939Z,97.98
2023-03-11T06:29:13.904Z,98.08
2023-03-11T06:31:42.854Z,98.18
2023-03-11T06:34:12.723Z,98.28
2023-03-11T06:36:40.911Z,98.24
2023-03-11T06:39:11.110Z,98.29
2023-03-11T06:41:39.283Z,98.41
2023-03-11T06:44:09.072Z,98.38
2023-03-11T06:46:38.294Z,98.38
2023-03-11T06:49:06.668Z,98.47
2023-03-11T06:51:35.253Z,98.68
2023-03-11T06:54:04.138Z,98.68
2023-03-11T06:56:33.746Z,98.51
2023-03-11T06:59:05.897Z,98.58
2023-03-11T07:01:35.469Z,98.44
2023-03-11T07:04:05.505Z,98.47
2023-03-11T07:06:33.909Z,98.58
2023-03-11T07:09:09.153Z,98.47
2023-03-11T07:11:40.087Z,98.44
2023-03-11T07:14:11.333Z,98.53
2023-03-11T07:16:42.829Z,98.60
2023-03-11T07:19:17.804Z,98.68
2023-03-11T07:21:46.099Z,98.75
2023-03-11T07:24:15.229Z,98.86
2023-03-11T07:26:44.570Z,98.91
2023-03-11T07:29:12.964Z,98.90
2023-03-11T07:31:41.579Z,98.90
2023-03-11T07:34:12.516Z,98.70
2023-03-11T07:36:42.505Z,98.81
2023-03-11T07:39:14.941Z,98.70
2023-03-11T07:41:43.854Z,98.87
2023-03-11T07:44:13.256Z,98.83
2023-03-11T07:46:42.166Z,98.91
2023-03-11T07:49:10.438Z,98.86
2023-03-11T07:51:41.151Z,98.83
2023-03-11T07:54:10.235Z,99.05
2023-03-11T07:56:38.626Z,99.05
2023-03-11T07:59:07.097Z,99.05
2023-03-11T08:01:40.797Z,99.01
2023-03-11T08:04:13.717Z,98.87
2023-03-11T08:06:45.928Z,99.11
2023-03-11T08:09:14.225Z,98.97
2023-03-11T08:11:42.914Z,99.08
2023-03-11T08:14:11.192Z,99.24
2023-03-11T08:16:41.271Z,99.16
2023-03-11T08:19:12.467Z,99.17
2023-03-11T08:21:40.747Z,99.38
2023-03-11T08:24:11.474Z,99.43
2023-03-11T08:26:40.239Z,99.42
2023-03-11T08:29:08.498Z,99.38
2023-03-11T08:31:36.996Z,99.35
2023-03-11T08:34:08.341Z,99.25
2023-03-11T08:36:36.923Z,99.45
2023-03-11T08:39:05.168Z,99.50
2023-03-11T08:41:33.904Z,99.45
2023-03-11T08:44:02.067Z,99.39
2023-03-11T08:46:35.912Z,99.33
2023-03-11T08:49:05.981Z,99.40
2023-03-11T08:51:35.117Z,99.53
2023-03-11T08:54:03.961Z,99.19
2023-03-11T08:56:32.210Z,99.07
2023-03-11T08:59:00.528Z,99.08
2023-03-11T09:01:29.806Z,99.20
2023-03-11T09:03:58.297Z,99.40
2023-03-11T09:06:26.666Z,99.62
2023-03-11T09:08:54.729Z,99.65
2023-03-11T09:11:23.023Z,99.55
2023-03-11T09:13:51.494Z,99.48
2023-03-11T09:16:22.119Z,99.65
2023-03-11T09:18:50.811Z,99.60
2023-03-11T09:21:19.482Z,99.45
2023-03-11T09:23:47.996Z,99.50
2023-03-11T09:26:16.244Z,99.55
2023-03-11T09:28:49.374Z,99.65
2023-03-11T09:31:18.585Z,99.73
2023-03-11T09:33:47.343Z,99.65
2023-03-11T09:36:17.630Z,99.34
2023-03-11T09:38:46.623Z,99.01
2023-03-11T09:41:17.732Z,99.07
2023-03-11T09:44:21.689Z,99.17
2023-03-11T09:47:22.014Z,98.91
2023-03-11T09:49:59.188Z,99.13
2023-03-11T09:52:47.327Z,98.92
2023-03-11T09:55:42.787Z,98.82
2023-03-11T09:58:18.383Z,98.75
2023-03-11T10:00:47.270Z,98.61
2023-03-11T10:03:26.582Z,98.30
2023-03-11T10:06:00.303Z,98.12
2023-03-11T10:08:33.698Z,98.09
2023-03-11T10:11:14.261Z,97.79
2023-03-11T10:13:57.177Z,97.49
2023-03-11T10:16:35.459Z,97.28
2023-03-11T10:19:21.583Z,97.45
2023-03-11T10:22:13.722Z,97.54
2023-03-11T10:25:17.543Z,97.44
2023-03-11T10:27:59.292Z,97.39
2023-03-11T10:30:46.225Z,97.18
2023-03-11T10:33:20.611Z,96.79
2023-03-11T10:35:52.632Z,96.44
2023-03-11T10:38:27.534Z,96.65
2023-03-11T10:40:57.232Z,96.73
2023-03-11T10:43:32.483Z,97.00
2023-03-11T10:46:01.305Z,97.00
2023-03-11T10:48:29.746Z,96.97
2023-03-11T10:51:27.029Z,96.94
2023-03-11T10:53:59.397Z,97.38
2023-03-11T10:56:34.712Z,97.29
2023-03-11T10:59:04.636Z,96.98
2023-03-11T11:01:32.849Z,96.92
2023-03-11T11:04:02.459Z,96.68
2023-03-11T11:06:37.861Z,96.85
2023-03-11T11:09:07.145Z,96.94
2023-03-11T11:11:39.733Z,96.95
2023-03-11T11:14:09.630Z,97.01
2023-03-11T11:16:38.078Z,96.95
2023-03-11T11:19:11.462Z,96.57
2023-03-11T11:21:41.128Z,96.14
2023-03-11T11:24:22.068Z,95.94
2023-03-11T11:27:12.083Z,96.16
2023-03-11T11:29:40.244Z,95.85
2023-03-11T11:32:40.966Z,95.58
2023-03-11T11:35:14.807Z,94.92
2023-03-11T11:37:46.648Z,94.88
2023-03-11T11:40:14.931Z,95.05
2023-03-11T11:42:47.168Z,94.77
2023-03-11T11:45:23.343Z,94.76
2023-03-11T11:47:54.688Z,95.00
2023-03-11T11:50:34.022Z,94.69
2023-03-11T11:53:10.015Z,94.18
2023-03-11T11:55:43.589Z,93.57
2023-03-11T11:58:12.847Z,93.01
2023-03-11T12:00:47.069Z,92.73
2023-03-11T12:03:39.187Z,93.08
2023-03-11T12:06:30.329Z,93.29
2023-03-11T12:09:06.280Z,93.83
2023-03-11T12:11:57.307Z,94.25
2023-03-11T12:14:40.209Z,94.82
2023-03-11T12:17:09.302Z,95.65
2023-03-11T12:20:01.389Z,95.57
2023-03-11T12:22:40.170Z,95.30
2023-03-11T12:25:23.791Z,95.17
2023-03-11T12:28:00.358Z,95.04
2023-03-11T12:30:31.606Z,94.30
2023-03-11T12:33:03.973Z,93.36
2023-03-11T12:35:34.129Z,92.90
2023-03-11T12:38:22.746Z,92.92
2023-03-11T12:41:05.259Z,92.99
2023-03-11T12:43:36.347Z,92.67
2023-03-11T12:46:06.010Z,92.72
2023-03-11T12:48:34.176Z,92.80
2023-03-11T12:51:03.973Z,92.87
2023-03-11T12:53:48.746Z,93.00
2023-03-11T12:56:43.132Z,92.80
2023-03-11T12:59:42.434Z,92.65
2023-03-11T13:02:10.504Z,92.20
2023-03-11T13:05:16.472Z,91.99
2023-03-11T13:07:53.136Z,91.82
2023-03-11T13:10:36.597Z,91.74
2023-03-11T13:13:33.001Z,91.73
2023-03-11T13:16:21.423Z,91.68
2023-03-11T13:18:52.388Z,91.33
2023-03-11T13:21:32.455Z,91.23
2023-03-11T13:24:18.850Z,91.10
2023-03-11T13:26:53.436Z,90.70
2023-03-11T13:29:54.400Z,90.89
2023-03-11T13:32:53.639Z,90.20
2023-03-11T13:35:49.350Z,89.88
2023-03-11T13:38:26.605Z,89.69
2023-03-11T13:40:54.982Z,89.20
2023-03-11T13:43:25.204Z,89.34
2023-03-11T13:46:01.017Z,89.50
2023-03-11T13:48:30.885Z,89.13
2023-03-11T13:51:08.459Z,89.11
2023-03-11T13:53:44.080Z,89.37
2023-03-11T13:56:22.722Z,89.17
2023-03-11T13:58:50.897Z,89.01
2023-03-11T14:01:19.510Z,89.05
2023-03-11T14:03:48.305Z,89.58
2023-03-11T14:06:19.790Z,89.66
2023-03-11T14:08:56.500Z,89.84
2023-03-11T14:11:29.527Z,90.70
2023-03-11T14:13:57.963Z,90.17
2023-03-11T14:16:35.247Z,89.29
2023-03-11T14:19:05.247Z,88.47
2023-03-11T14:21:33.834Z,88.54
2023-03-11T14:24:03.128Z,87.70
2023-03-11T14:26:35.295Z,87.00
2023-03-11T14:29:12.475Z,86.14
2023-03-11T14:31:44.293Z,85.94
2023-03-11T14:34:16.906Z,85.43
2023-03-11T14:36:48.744Z,85.14
2023-03-11T14:39:33.245Z,84.85
2023-03-11T14:42:23.105Z,84.30
2023-03-11T14:45:05.275Z,83.69
2023-03-11T14:47:45.568Z,83.61
2023-03-11T14:50:18.045Z,83.49
2023-03-11T14:52:52.100Z,83.36
2023-03-11T14:55:28.729Z,83.13
2023-03-11T14:58:05.428Z,83.18
2023-03-11T15:00:41.233Z,83.58
2023-03-11T15:03:13.095Z,83.73
2023-03-11T15:05:58.875Z,83.26
2023-03-11T15:08:29.912Z,82.95
2023-03-11T15:11:07.198Z,82.85
2023-03-11T15:13:36.403Z,82.53
2023-03-11T15:16:07.233Z,82.74
2023-03-11T15:18:38.017Z,82.64
2023-03-11T15:21:20.373Z,82.57
2023-03-11T15:23:51.410Z,82.77
2023-03-11T15:26:29.056Z,82.82
2023-03-11T15:29:01.861Z,82.13
2023-03-11T15:31:33.451Z,81.95
2023-03-11T15:34:18.715Z,82.22
2023-03-11T15:36:49.856Z,82.11
2023-03-11T15:39:20.365Z,82.28
2023-03-11T15:42:08.229Z,82.50
2023-03-11T15:45:14.050Z,82.25
2023-03-11T15:47:42.652Z,81.85
2023-03-11T15:50:24.486Z,81.89
2023-03-11T15:52:55.485Z,81.83
2023-03-11T15:55:25.781Z,81.80
2023-03-11T15:58:01.553Z,81.91
2023-03-11T16:00:29.825Z,81.51
2023-03-11T16:02:58.213Z,81.55
2023-03-11T16:05:26.313Z,81.66
2023-03-11T16:07:54.679Z,81.35
2023-03-11T16:10:28.933Z,81.10
2023-03-11T16:12:57.034Z,81.30
2023-03-11T16:15:29.155Z,80.72
2023-03-11T16:17:59.837Z,80.70
2023-03-11T16:20:37.940Z,80.68
2023-03-11T16:23:08.160Z,80.55
2023-03-11T16:25:40.017Z,80.49
2023-03-11T16:28:11.763Z,80.20
2023-03-11T16:30:40.080Z,80.38
2023-03-11T16:33:08.320Z,79.99
2023-03-11T16:35:36.511Z,80.17
2023-03-11T16:38:04.780Z,80.18
2023-03-11T16:40:33.145Z,79.93
2023-03-11T16:43:13.686Z,79.95
2023-03-11T16:45:41.881Z,79.92
2023-03-11T16:48:10.062Z,79.77
2023-03-11T16:50:38.263Z,79.68
2023-03-11T16:53:06.393Z,79.86
2023-03-11T16:55:34.576Z,79.93
2023-03-11T16:58:02.844Z,80.00
2023-03-11T17:00:31.059Z,80.23
2023-03-11T17:02:59.393Z,80.24
2023-03-11T17:05:27.569Z,80.55
2023-03-11T17:08:01.005Z,80.40
2023-03-11T17:10:29.625Z,80.67
2023-03-11T17:12:57.922Z,80.93
2023-03-11T17:15:26.094Z,81.09
2023-03-11T17:17:54.266Z,81.39
2023-03-11T17:20:22.561Z,81.46
2023-03-11T17:22:50.817Z,81.59
2023-03-11T17:25:19.411Z,81.89
2023-03-11T17:27:47.894Z,82.11
2023-03-11T17:30:27.121Z,82.48
2023-03-11T17:32:58.805Z,82.69
2023-03-11T17:35:27.147Z,83.02
2023-03-11T17:37:55.217Z,83.07
2023-03-11T17:40:23.386Z,83.12
2023-03-11T17:42:51.701Z,83.31
2023-03-11T17:45:19.826Z,83.25
2023-03-11T17:47:48.113Z,83.52
2023-03-11T17:50:16.384Z,83.54
2023-03-11T17:52:46.818Z,83.74
2023-03-11T17:55:14.993Z,83.90
2023-03-11T17:57:45.886Z,84.15
2023-03-11T18:00:15.161Z,84.28
2023-03-11T18:02:43.480Z,84.24
2023-03-11T18:05:12.063Z,84.28
2023-03-11T18:07:40.444Z,84.27
2023-03-11T18:10:10.450Z,84.38
2023-03-11T18:12:38.932Z,84.58
2023-03-11T18:15:12.065Z,84.63
2023-03-11T18:17:40.909Z,84.88
2023-03-11T18:20:09.824Z,84.88
2023-03-11T18:22:40.115Z,85.06
2023-03-11T18:25:10.848Z,85.14
2023-03-11T18:27:39.227Z,85.18
2023-03-11T18:30:08.865Z,85.29
2023-03-11T18:32:37.681Z,85.21
2023-03-11T18:35:06.718Z,85.47
2023-03-11T18:37:34.896Z,85.56
2023-03-11T18:40:03.774Z,85.81
2023-03-11T18:42:32.463Z,85.83
2023-03-11T18:45:00.638Z,85.90
2023-03-11T18:47:29.010Z,85.87
2023-03-11T18:49:57.085Z,85.84
2023-03-11T18:52:25.559Z,85.98
2023-03-11T18:54:53.730Z,85.87
2023-03-11T18:57:22.008Z,86.01
2023-03-11T18:59:52.038Z,85.92
2023-03-11T19:02:21.119Z,86.26
2023-03-11T19:04:49.462Z,86.41
2023-03-11T19:07:18.051Z,86.35
2023-03-11T19:09:49.122Z,86.47
2023-03-11T19:12:17.293Z,86.45
2023-03-11T19:14:45.667Z,86.32
2023-03-11T19:17:16.603Z,86.30
2023-03-11T19:19:44.888Z,86.24
2023-03-11T19:22:12.951Z,86.43
2023-03-11T19:24:41.225Z,86.73
2023-03-11T19:27:09.401Z,86.78
2023-03-11T19:29:37.573Z,86.85
2023-03-11T19:32:06.259Z,86.87
2023-03-11T19:34:34.840Z,86.84
2023-03-11T19:37:03.117Z,86.84
2023-03-11T19:39:31.285Z,86.70
2023-03-11T19:41:59.560Z,86.85
2023-03-11T19:44:27.723Z,87.11
2023-03-11T19:46:55.808Z,87.16
2023-03-11T19:49:23.969Z,87.19
2023-03-11T19:51:53.266Z,87.25
2023-03-11T19:54:22.245Z,87.07
2023-03-11T19:56:50.446Z,86.93
2023-03-11T19:59:18.641Z,87.02
2023-03-11T20:01:46.780Z,86.98
2023-03-11T20:04:15.616Z,86.99
2023-03-11T20:06:44.809Z,87.04
2023-03-11T20:09:13.572Z,87.24
2023-03-11T20:11:42.338Z,87.18
2023-03-11T20:14:10.924Z,87.01
2023-03-11T20:16:40.164Z,86.87
2023-03-11T20:19:08.424Z,86.80
2023-03-11T20:21:40.918Z,86.91
2023-03-11T20:24:10.188Z,87.04
2023-03-11T20:26:38.660Z,87.12
2023-03-11T20:29:07.380Z,87.10
2023-03-11T20:31:36.727Z,87.13
2023-03-11T20:34:05.547Z,87.07
2023-03-11T20:36:34.111Z,86.88
2023-03-11T20:39:04.362Z,86.83
2023-03-11T20:41:38.767Z,86.81
2023-03-11T20:44:09.083Z,87.06
2023-03-11T20:46:37.490Z,87.20
2023-03-11T20:49:05.921Z,87.14
2023-03-11T20:51:34.289Z,87.13
2023-03-11T20:54:02.630Z,86.88
2023-03-11T20:56:31.073Z,87.04
2023-03-11T20:59:01.131Z,86.91
2023-03-11T21:01:31.448Z,86.99
2023-03-11T21:04:02.582Z,87.00
2023-03-11T21:06:36.118Z,87.22
2023-03-11T21:09:08.359Z,87.32
2023-03-11T21:11:36.910Z,87.45
2023-03-11T21:14:05.769Z,87.32
2023-03-11T21:16:35.150Z,87.26
2023-03-11T21:19:05.664Z,87.09
2023-03-11T21:21:34.233Z,87.24
2023-03-11T21:24:02.712Z,87.14
2023-03-11T21:26:31.649Z,87.21
2023-03-11T21:28:59.977Z,87.49
2023-03-11T21:31:29.662Z,87.46
2023-03-11T21:33:59.565Z,87.56
2023-03-11T21:36:28.983Z,87.48
2023-03-11T21:38:57.302Z,87.33
2023-03-11T21:41:27.644Z,87.26
2023-03-11T21:43:57.160Z,87.36
2023-03-11T21:46:28.471Z,87.36
2023-03-11T21:48:57.102Z,87.63
2023-03-11T21:51:25.851Z,87.61
2023-03-11T21:53:54.225Z,87.57
2023-03-11T21:56:23.106Z,87.63
2023-03-11T21:58:51.480Z,87.44
2023-03-11T22:01:19.686Z,87.39
2023-03-11T22:03:48.503Z,87.44
2023-03-11T22:06:17.114Z,87.33
2023-03-11T22:08:45.336Z,87.41
2023-03-11T22:11:18.039Z,87.57
2023-03-11T22:13:54.390Z,87.47
2023-03-11T22:16:23.788Z,87.50
2023-03-11T22:18:52.467Z,87.26
2023-03-11T22:21:20.974Z,87.36
2023-03-11T22:23:49.595Z,87.09
2023-03-11T22:26:17.869Z,86.97
2023-03-11T22:28:46.038Z,87.07
2023-03-11T22:31:15.341Z,87.19
2023-03-11T22:33:43.512Z,87.30
2023-03-11T22:36:11.962Z,87.39
2023-03-11T22:38:42.361Z,87.27
2023-03-11T22:41:11.720Z,87.29
2023-03-11T22:43:40.304Z,87.22
2023-03-11T22:46:08.530Z,86.92
2023-03-11T22:48:37.285Z,86.98
2023-03-11T22:51:06.045Z,87.17
2023-03-11T22:53:34.321Z,87.17
2023-03-11T22:56:12.120Z,87.25
2023-03-11T22:58:41.005Z,87.25
2023-03-11T23:01:10.101Z,87.13
2023-03-11T23:03:38.725Z,87.23
2023-03-11T23:06:09.108Z,87.16
2023-03-11T23:08:37.489Z,86.97
2023-03-11T23:11:08.861Z,86.82
2023-03-11T23:13:38.340Z,86.96
2023-03-11T23:16:09.276Z,86.79
2023-03-11T23:18:38.469Z,87.04
2023-03-11T23:21:18.419Z,87.00
2023-03-11T23:23:47.306Z,87.01
2023-03-11T23:26:16.810Z,86.86
2023-03-11T23:28:45.702Z,86.81
2023-03-11T23:31:15.309Z,86.44
2023-03-11T23:33:44.089Z,86.17
2023-03-11T23:36:15.383Z,86.16
2023-03-11T23:38:43.712Z,86.33
2023-03-11T23:41:15.362Z,86.23
2023-03-11T23:43:44.153Z,86.27
2023-03-11T23:46:12.921Z,86.09
2023-03-11T23:48:41.423Z,85.98
2023-03-11T23:51:09.906Z,85.86
2023-03-11T23:53:38.584Z,85.93
2023-03-11T23:56:15.042Z,85.78
2023-03-11T23:58:43.231Z,85.80
